Portada
METAR-TAF:

METAR-TAF

Aeroports :

Sendai, Japó

latitud: 38-08N, longitud: 140-55E, altitud: 1 m

Observació

L'informe es va fer fa 5 hores i 36 minuts, a les 12:00 UTC
Vent 9 kt del Sud
Temperatura 17°C
Humitat 63%
Pressió 998 hPa
Visibilitat 10 km o més
Escasses núvols a una alçada de 2000 ft
Cel ennuvolat a una alçada de 4000 ft

METAR: RJSS 211200Z 17009KT 9999 FEW020 BKN040 17/10 Q0998

Hora: 02:36 (17:36 UTC)

Pronòstic

L'informe es va fer fa 25 minuts, a les 17:11 UTC
Pronòstic vàlid del 21 a les 18 UTC al 23 a les 00 UTC
Vent 10 kt del Oest/Sud-Oest
Visibilitat 10 km o més
Escasses núvols a una alçada de 2000 ft
Cel ennuvolat a una alçada de 4000 ft
Evolucionant progressivament
l' 21 a les 23 UTC al 22 a les 01 UTC
Vent 15 kt del Oest/Nord-Oest
Temporalment
l' 22 a les 01 UTC al 22 a les 12 UTC
Vent 20 kt del Oest/Nord-Oest amb ràfegues de 30 kt

TAF: RJSS 211711Z 2118/2300 24010KT 9999 FEW020 BKN040 BECMG 2123/2201 30015KT TEMPO 2201/2212 30020G30KT

Observacions i pronòstics meteorològics de més de 4000 aeroports (METAR i TAF).

Les estacions disponibles són els punts grocs i vermells al mapa.

Posi el ratolí al punt desitjat per veure el nom de l'estació.

Feu clic per veure les observacions i els pronòstics meteorològics.

Per canviar el mapa: feu clic els botons verds amb una creu de color negre per apropar; al botó verd amb un guió per allunyar la imatge; o en les fletxes verdes per a mapes adjacents.


METAR-TAF: